Главная страница
METAR-TAF:

METAR-TAF

Аэропорты :

Пулково

Санкт-Петербург, Россия

широта: 59-58N, долгота: 030-18E, высота над уровнем моря: 4 м

Текущие метеонаблюдения

Эта сводка был подготовлена 22 минут назад, в 07:00 UTC
Ветер 12 Узел от западный, изменяющийся между западный-юго-западный и северо-западный
Температура 21°C
Влажность 53%
Давление 1013 hPa
Видимость 10 км и более
Нет облачности ниже 1500 м, и нет кучево-дождевой облачности

METAR: ULLI 180700Z 28006MPS 250V310 CAVOK 21/11 Q1013 R88/090060 NOSIG

Время: 10:22 (07:22 UTC)

Прогноз

Эта сводка был подготовлена 2 часа и 25 минут назад, в 04:57 UTC
Прогноз действительный с 18-го 06 UTC до 19-го 06 UTC
Ветер 12 Узел от западный
Видимость 10 км и более
Отдельные облака на высоте 3000 фута
временами
С 18-го 10 UTC до 18-го 21 UTC
Ветер 14 Узел от западный с порывами до 25 Узел
Рассеянная облачность на высоте 3000 фута

TAF: ULLI 180457Z 1806/1906 26006MPS 9999 SCT030 TEMPO 1810/1821 28007G13MPS BKN030

Метеонаблюдения и прогнозы для более 4000 аэропортов (сводки METAR и TAF).

Имеющиеся станции представлены на карте желтыми и красными точками.

Чтобы увидеть название станции, наведите на нее мышь.

Затем щелкните, чтобы увидеть метеонаблюдения и метеопрогнозы.

Управление картой: чтобы увеличить масштаб, щелкните зеленые кнопки с черным крестиком; чтобы уменьшить масштаб, щелкните зеленую кнопку с тире; для просмотра соседних карт щелкайте зеленые стрелки.


METAR-TAF: